Main page
METAR-TAF:

METAR-TAF

Airports :

Dortmund Airport

Dortmund, Germany

latitude: 51-31N, longitude: 007-37E, elevation: 127 m

Current weather observation

The report was made 17 minutes ago, at 18:50 UTC
Wind 11 kt from the Southwest
Temperature 9°C
Humidity 81%
Pressure 1027 hPa
Visibility 10 km or more
no clouds below 1500 m and no cumulonimbus

METAR: EDLW 131850Z 22011KT CAVOK 09/06 Q1027

Time: 20:07 (19:07 UTC)

Forecast

The report was made 2 hours and 7 minutes ago, at 17:00 UTC
Forecast valid from 13 at 18 UTC to 14 at 18 UTC
Wind 12 kt from the Southwest
Visibility 10 km or more
Few clouds at a height of 3500 ft
Becoming
from 14 at 00 UTC to 14 at 03 UTC
Wind 7 kt from the South

TAF: EDLW 131700Z 1318/1418 22012KT 9999 FEW035 BECMG 1400/1403 19007KT

Weather observations and forecasts of more than 4000 airports (METAR and TAF reports).

The available stations are represented by yellow and red dots on the map.

Hover mouse over dot to see the name of the station.

Then click to see weather observations and forecasts.

To change the map : click on the green buttons with a black cross to zoom in, on the green button with a dash to zoom out, or on the green arrows for adjacent maps.


METAR-TAF: